createdAt,value
2018-01-07T00:02:21.533Z,1.30
2018-01-07T00:04:49.593Z,1.30
2018-01-07T00:07:21.661Z,1.20
2018-01-07T00:09:55.029Z,1.10
2018-01-07T00:12:28.049Z,1.10
2018-01-07T00:15:09.216Z,1.10
2018-01-07T00:17:41.395Z,1.10
2018-01-07T00:20:13.373Z,1.00
2018-01-07T00:22:41.468Z,1.00
2018-01-07T00:25:10.623Z,1.00
2018-01-07T00:27:38.729Z,1.00
2018-01-07T00:30:06.854Z,1.00
2018-01-07T00:32:34.937Z,1.00
2018-01-07T00:35:05.025Z,1.00
2018-01-07T00:37:34.377Z,1.00
2018-01-07T00:40:02.464Z,1.30
2018-01-07T00:42:31.701Z,1.30
2018-01-07T00:45:00.101Z,1.30
2018-01-07T00:47:29.169Z,1.40
2018-01-07T00:50:00.201Z,1.30
2018-01-07T00:52:29.041Z,1.30
2018-01-07T00:54:59.193Z,1.30
2018-01-07T00:57:28.629Z,1.20
2018-01-07T01:00:03.547Z,1.20
2018-01-07T01:02:32.598Z,1.20
2018-01-07T01:05:01.661Z,1.30
2018-01-07T01:07:29.777Z,1.30
2018-01-07T01:09:59.877Z,1.40
2018-01-07T01:12:39.069Z,1.30
2018-01-07T01:15:09.097Z,1.20
2018-01-07T01:17:37.128Z,1.10
2018-01-07T01:20:14.117Z,0.80
2018-01-07T01:22:44.156Z,0.80
2018-01-07T01:25:22.569Z,0.70
2018-01-07T01:27:56.329Z,0.60
2018-01-07T01:30:27.940Z,0.50
2018-01-07T01:32:56.049Z,0.60
2018-01-07T01:35:25.081Z,0.80
2018-01-07T01:37:55.005Z,0.90
2018-01-07T01:40:23.109Z,1.50
2018-01-07T01:42:51.525Z,2.00
2018-01-07T01:45:25.433Z,2.30
2018-01-07T01:48:00.773Z,2.40
2018-01-07T01:50:42.645Z,2.60
2018-01-07T01:53:11.681Z,2.60
2018-01-07T01:55:40.361Z,2.50
2018-01-07T01:58:13.228Z,2.50
2018-01-07T02:00:44.162Z,2.60
2018-01-07T02:03:13.160Z,2.50
2018-01-07T02:05:43.309Z,2.70
2018-01-07T02:08:15.920Z,2.80
2018-01-07T02:10:51.050Z,2.90
2018-01-07T02:13:21.396Z,2.90
2018-01-07T02:15:52.748Z,3.00
2018-01-07T02:18:20.873Z,3.10
2018-01-07T02:20:48.988Z,3.10
2018-01-07T02:23:17.113Z,3.10
2018-01-07T02:25:45.165Z,3.10
2018-01-07T02:28:13.276Z,3.20
2018-01-07T02:30:42.281Z,3.30
2018-01-07T02:33:11.584Z,3.30
2018-01-07T02:35:40.536Z,3.40
2018-01-07T02:38:09.777Z,3.50
2018-01-07T02:40:39.845Z,3.50
2018-01-07T02:43:07.940Z,3.50
2018-01-07T02:45:36.893Z,3.60
2018-01-07T02:48:04.929Z,3.60
2018-01-07T02:50:38.452Z,3.70
2018-01-07T02:53:08.392Z,3.70
2018-01-07T02:55:38.532Z,3.80
2018-01-07T02:58:13.824Z,3.80
2018-01-07T03:00:46.764Z,3.90
2018-01-07T03:03:19.228Z,3.90
2018-01-07T03:05:51.084Z,4.00
2018-01-07T03:08:27.586Z,4.00
2018-01-07T03:10:59.032Z,4.10
2018-01-07T03:13:30.316Z,4.10
2018-01-07T03:15:58.444Z,4.10
2018-01-07T03:18:27.492Z,4.20
2018-01-07T03:21:01.684Z,4.20
2018-01-07T03:23:34.780Z,4.20
2018-01-07T03:26:07.852Z,4.30
2018-01-07T03:28:43.812Z,4.30
2018-01-07T03:31:16.237Z,4.30
2018-01-07T03:33:48.680Z,4.20
2018-01-07T03:36:16.948Z,4.20
2018-01-07T03:38:46.968Z,4.30
2018-01-07T03:41:16.016Z,4.30
2018-01-07T03:44:01.228Z,4.30
2018-01-07T03:46:31.040Z,4.40
2018-01-07T03:49:01.820Z,4.40
2018-01-07T03:51:37.652Z,4.40
2018-01-07T03:54:05.752Z,4.40
2018-01-07T03:56:33.820Z,4.40
2018-01-07T03:59:01.952Z,4.40
2018-01-07T04:01:32.004Z,4.40
2018-01-07T04:04:03.240Z,4.40
2018-01-07T04:06:37.644Z,4.40
2018-01-07T04:09:11.147Z,4.60
2018-01-07T04:11:43.444Z,4.50
2018-01-07T04:14:11.596Z,4.50
2018-01-07T04:16:39.632Z,4.50
2018-01-07T04:19:08.655Z,4.50
2018-01-07T04:21:46.684Z,4.50
2018-01-07T04:24:14.772Z,4.60
2018-01-07T04:26:48.735Z,4.50
2018-01-07T04:29:17.608Z,4.50
2018-01-07T04:31:48.876Z,4.60
2018-01-07T04:34:16.972Z,4.60
2018-01-07T04:36:46.072Z,4.60
2018-01-07T04:39:14.348Z,4.60
2018-01-07T04:41:44.516Z,4.50
2018-01-07T04:44:14.610Z,4.60
2018-01-07T04:46:43.536Z,4.60
2018-01-07T04:49:12.511Z,4.60
2018-01-07T04:51:41.404Z,4.70
2018-01-07T04:54:11.440Z,4.70
2018-01-07T04:56:41.420Z,4.70
2018-01-07T04:59:11.480Z,4.70
2018-01-07T05:01:50.248Z,4.70
2018-01-07T05:04:21.508Z,4.80
2018-01-07T05:06:49.570Z,4.70
2018-01-07T05:09:23.863Z,4.80
2018-01-07T05:11:52.876Z,4.80
2018-01-07T05:14:27.167Z,4.80
2018-01-07T05:17:07.980Z,4.80
2018-01-07T05:19:48.884Z,4.80
2018-01-07T05:22:18.847Z,4.90
2018-01-07T05:24:50.655Z,4.90
2018-01-07T05:27:20.367Z,4.90
2018-01-07T05:30:06.360Z,4.90
2018-01-07T05:32:36.467Z,4.90
2018-01-07T05:35:18.675Z,4.90
2018-01-07T05:37:46.739Z,4.80
2018-01-07T05:40:19.207Z,4.70
2018-01-07T05:42:52.176Z,4.70
2018-01-07T05:45:22.247Z,4.70
2018-01-07T05:47:50.528Z,4.70
2018-01-07T05:50:20.643Z,4.60
2018-01-07T05:52:49.671Z,4.50
2018-01-07T05:55:18.687Z,4.40
2018-01-07T05:57:50.531Z,4.40
2018-01-07T06:00:20.203Z,4.60
2018-01-07T06:03:02.364Z,4.60
2018-01-07T06:05:38.295Z,4.60
2018-01-07T06:08:07.482Z,4.70
2018-01-07T06:10:38.331Z,4.70
2018-01-07T06:13:09.369Z,4.70
2018-01-07T06:15:49.079Z,4.80
2018-01-07T06:18:29.564Z,4.80
2018-01-07T06:21:13.043Z,4.90
2018-01-07T06:23:42.115Z,4.90
2018-01-07T06:26:12.511Z,4.90
2018-01-07T06:28:41.451Z,4.90
2018-01-07T06:31:11.415Z,4.90
2018-01-07T06:33:54.495Z,4.90
2018-01-07T06:36:28.511Z,4.90
2018-01-07T06:38:58.516Z,4.90
2018-01-07T06:41:28.552Z,4.90
2018-01-07T06:44:03.231Z,4.90
2018-01-07T06:46:43.859Z,5.00
2018-01-07T06:49:12.691Z,4.90
2018-01-07T06:51:41.415Z,4.90
2018-01-07T06:54:13.027Z,5.00
2018-01-07T06:56:45.055Z,5.00
2018-01-07T06:59:14.051Z,5.00
2018-01-07T07:01:54.414Z,5.00
2018-01-07T07:04:22.518Z,5.00
2018-01-07T07:06:51.575Z,4.90
2018-01-07T07:09:22.323Z,5.00
2018-01-07T07:11:50.363Z,4.90
2018-01-07T07:14:19.342Z,4.90
2018-01-07T07:16:51.847Z,5.00
2018-01-07T07:19:25.247Z,5.00
2018-01-07T07:21:53.311Z,5.00
2018-01-07T07:24:24.031Z,5.00
2018-01-07T07:26:54.067Z,5.00
2018-01-07T07:29:29.265Z,5.00
2018-01-07T07:32:01.266Z,5.00
2018-01-07T07:34:30.091Z,5.00
2018-01-07T07:37:06.671Z,5.00
2018-01-07T07:39:38.057Z,5.00
2018-01-07T07:42:11.999Z,5.00
2018-01-07T07:44:43.626Z,5.00
2018-01-07T07:47:15.379Z,5.10
2018-01-07T07:49:43.410Z,5.10
2018-01-07T07:52:15.734Z,5.10
2018-01-07T07:55:00.215Z,5.10
2018-01-07T07:57:42.910Z,5.10
2018-01-07T08:00:10.942Z,5.10
2018-01-07T08:02:44.975Z,5.10
2018-01-07T08:05:19.799Z,5.10
2018-01-07T08:07:58.791Z,5.20
2018-01-07T08:10:47.835Z,5.20
2018-01-07T08:13:28.278Z,5.20
2018-01-07T08:16:09.975Z,5.20
2018-01-07T08:18:38.462Z,5.20
2018-01-07T08:21:10.671Z,5.30
2018-01-07T08:23:38.707Z,5.30
2018-01-07T08:26:21.642Z,5.40
2018-01-07T08:28:54.163Z,5.40
2018-01-07T08:31:41.515Z,5.30
2018-01-07T08:34:11.486Z,5.40
2018-01-07T08:36:40.275Z,5.40
2018-01-07T08:39:09.075Z,5.40
2018-01-07T08:41:38.843Z,5.40
2018-01-07T08:44:06.963Z,5.40
2018-01-07T08:46:36.742Z,5.40
2018-01-07T08:49:10.714Z,5.40
2018-01-07T08:51:41.290Z,5.50
2018-01-07T08:54:10.258Z,5.50
2018-01-07T08:56:39.299Z,5.50
2018-01-07T08:59:09.298Z,5.60
2018-01-07T09:01:39.167Z,5.60
2018-01-07T09:04:17.021Z,5.60
2018-01-07T09:07:09.931Z,5.60
2018-01-07T09:09:37.951Z,5.60
2018-01-07T09:12:06.043Z,5.70
2018-01-07T09:14:34.978Z,5.70
2018-01-07T09:17:03.074Z,5.70
2018-01-07T09:19:32.035Z,5.80
2018-01-07T09:22:05.874Z,5.80
2018-01-07T09:24:43.231Z,5.80
2018-01-07T09:27:13.370Z,5.80
2018-01-07T09:29:58.371Z,5.80
2018-01-07T09:32:34.608Z,5.80
2018-01-07T09:35:03.439Z,5.80
2018-01-07T09:37:33.386Z,5.80
2018-01-07T09:40:03.425Z,5.80
2018-01-07T09:42:50.998Z,5.90
2018-01-07T09:45:25.574Z,5.80
2018-01-07T09:48:00.663Z,5.80
2018-01-07T09:50:32.790Z,5.80
2018-01-07T09:53:11.382Z,5.90
2018-01-07T09:55:47.038Z,5.90
2018-01-07T09:58:15.854Z,5.90
2018-01-07T10:00:45.811Z,5.90
2018-01-07T10:03:17.710Z,5.90
2018-01-07T10:05:56.794Z,5.90
2018-01-07T10:08:39.101Z,5.90
2018-01-07T10:11:07.186Z,5.90
2018-01-07T10:13:35.222Z,5.90
2018-01-07T10:16:10.250Z,5.90
2018-01-07T10:18:42.310Z,5.80
2018-01-07T10:21:25.295Z,5.90
2018-01-07T10:23:56.014Z,5.80
2018-01-07T10:26:27.190Z,5.80
2018-01-07T10:28:56.162Z,5.80
2018-01-07T10:31:34.599Z,5.80
2018-01-07T10:34:03.566Z,5.80
2018-01-07T10:36:32.355Z,5.80
2018-01-07T10:39:01.162Z,5.80
2018-01-07T10:41:50.142Z,5.80
2018-01-07T10:44:19.110Z,5.80
2018-01-07T10:46:48.086Z,5.80
2018-01-07T10:49:17.035Z,5.80
2018-01-07T10:51:45.070Z,5.80
2018-01-07T10:54:15.789Z,5.80
2018-01-07T10:56:50.277Z,5.70
2018-01-07T10:59:19.242Z,5.70
2018-01-07T11:01:54.958Z,5.70
2018-01-07T11:04:27.491Z,5.80
2018-01-07T11:07:03.142Z,5.80
2018-01-07T11:09:36.942Z,5.80
2018-01-07T11:12:05.148Z,5.80
2018-01-07T11:14:52.174Z,5.80
2018-01-07T11:17:34.578Z,5.90
2018-01-07T11:20:03.603Z,5.80
2018-01-07T11:22:35.674Z,5.80
2018-01-07T11:25:05.718Z,5.80
2018-01-07T11:27:34.798Z,5.70
2018-01-07T11:30:05.654Z,5.70
2018-01-07T11:32:34.762Z,5.60
2018-01-07T11:35:03.850Z,5.60
2018-01-07T11:37:33.722Z,5.60
2018-01-07T11:40:24.846Z,5.60
2018-01-07T11:43:04.450Z,5.60
2018-01-07T11:45:46.090Z,5.60
2018-01-07T11:48:15.070Z,5.60
2018-01-07T11:50:43.130Z,5.60
2018-01-07T11:53:13.373Z,5.60
2018-01-07T11:55:45.011Z,5.50
2018-01-07T11:58:20.566Z,5.50
2018-01-07T12:00:50.177Z,5.50
2018-01-07T12:03:19.385Z,5.50
2018-01-07T12:05:55.877Z,5.50
2018-01-07T12:08:24.926Z,5.40
2018-01-07T12:10:55.046Z,5.40
2018-01-07T12:13:25.614Z,5.50
2018-01-07T12:16:00.317Z,5.50
2018-01-07T12:18:32.887Z,5.40
2018-01-07T12:21:07.666Z,5.50
2018-01-07T12:23:37.892Z,5.40
2018-01-07T12:26:07.234Z,5.50
2018-01-07T12:28:35.409Z,5.50
2018-01-07T12:31:03.606Z,5.50
2018-01-07T12:33:32.645Z,5.50
2018-01-07T12:36:00.882Z,5.60
2018-01-07T12:38:35.690Z,5.60
2018-01-07T12:44:06.814Z,5.60
2018-01-07T12:46:36.050Z,5.60
2018-01-07T12:49:19.657Z,5.60
2018-01-07T12:51:56.154Z,5.60
2018-01-07T12:54:28.105Z,5.60
2018-01-07T12:56:57.026Z,5.60
2018-01-07T12:59:27.629Z,5.60
2018-01-07T13:01:58.249Z,5.70
2018-01-07T13:04:26.746Z,5.70
2018-01-07T13:06:59.638Z,5.70
2018-01-07T13:12:32.225Z,5.70
2018-01-07T13:15:05.925Z,5.70
2018-01-07T13:17:35.349Z,5.70
2018-01-07T13:20:08.329Z,5.70
2018-01-07T13:22:40.081Z,5.70
2018-01-07T13:25:11.637Z,5.80
2018-01-07T13:27:41.278Z,5.80
2018-01-07T13:30:11.285Z,5.80
2018-01-07T13:32:48.009Z,5.80
2018-01-07T13:38:09.246Z,5.80
2018-01-07T13:40:38.253Z,5.80
2018-01-07T13:43:07.889Z,5.80
2018-01-07T13:45:40.169Z,5.80
2018-01-07T13:48:09.229Z,5.80
2018-01-07T13:50:42.657Z,5.80
2018-01-07T13:53:13.565Z,5.90
2018-01-07T13:55:42.889Z,5.90
2018-01-07T13:58:10.889Z,5.90
2018-01-07T14:00:44.833Z,5.90
2018-01-07T14:03:14.912Z,5.80
2018-01-07T14:05:47.082Z,5.80
2018-01-07T14:08:15.737Z,5.80
2018-01-07T14:10:43.725Z,5.80
2018-01-07T14:13:12.765Z,5.80
2018-01-07T14:15:40.805Z,5.80
2018-01-07T14:18:14.805Z,5.80
2018-01-07T14:20:43.087Z,5.80
2018-01-07T14:23:11.136Z,5.80
2018-01-07T14:25:40.073Z,5.70
2018-01-07T14:28:09.173Z,5.70
2018-01-07T14:30:43.261Z,5.80
2018-01-07T14:33:11.287Z,5.80
2018-01-07T14:35:43.969Z,5.70
2018-01-07T14:38:18.136Z,5.70
2018-01-07T14:40:47.144Z,5.70
2018-01-07T14:43:25.708Z,5.80
2018-01-07T14:45:58.729Z,5.70
2018-01-07T14:48:26.796Z,5.70
2018-01-07T14:51:08.292Z,5.70
2018-01-07T14:53:41.589Z,5.60
2018-01-07T14:56:09.648Z,5.60
2018-01-07T14:58:37.668Z,5.60
2018-01-07T15:01:07.656Z,5.60
2018-01-07T15:03:35.660Z,5.60
2018-01-07T15:06:08.021Z,5.50
2018-01-07T15:08:37.681Z,5.50
2018-01-07T15:11:06.603Z,5.50
2018-01-07T15:13:35.620Z,5.50
2018-01-07T15:16:08.800Z,5.50
2018-01-07T15:18:37.852Z,5.50
2018-01-07T15:21:11.004Z,5.40
2018-01-07T15:23:39.968Z,5.40
2018-01-07T15:26:08.969Z,5.40
2018-01-07T15:28:37.930Z,5.40
2018-01-07T15:31:17.732Z,5.40
2018-01-07T15:33:47.692Z,5.40
2018-01-07T15:36:15.724Z,5.40
2018-01-07T15:38:47.173Z,5.30
2018-01-07T15:41:17.123Z,5.30
2018-01-07T15:43:57.062Z,5.30
2018-01-07T15:46:45.353Z,5.30
2018-01-07T15:49:28.276Z,5.30
2018-01-07T15:51:59.500Z,5.30
2018-01-07T15:54:29.304Z,5.40
2018-01-07T15:56:57.476Z,5.30
2018-01-07T15:59:31.736Z,5.30
2018-01-07T16:02:03.472Z,5.30
2018-01-07T16:04:38.340Z,5.30
2018-01-07T16:07:08.316Z,5.30
2018-01-07T16:09:48.784Z,5.40
2018-01-07T16:15:15.875Z,5.40
2018-01-07T16:17:54.376Z,5.30
2018-01-07T16:20:27.864Z,5.30
2018-01-07T16:23:01.512Z,5.30
2018-01-07T16:25:43.916Z,5.30
2018-01-07T16:28:23.567Z,5.30
2018-01-07T16:31:03.352Z,5.30
2018-01-07T16:33:31.448Z,5.30
2018-01-07T16:36:03.096Z,5.30
2018-01-07T16:38:36.832Z,5.30
2018-01-07T16:41:08.500Z,5.30
2018-01-07T16:43:37.492Z,5.30
2018-01-07T16:46:09.944Z,5.30
2018-01-07T16:48:37.988Z,5.30
2018-01-07T16:51:18.616Z,5.30
2018-01-07T16:53:47.584Z,5.30
2018-01-07T16:56:28.090Z,5.30
2018-01-07T16:58:58.084Z,5.30
2018-01-07T17:01:30.352Z,5.30
2018-01-07T17:04:00.084Z,5.20
2018-01-07T17:06:28.131Z,5.20
2018-01-07T17:08:57.984Z,5.20
2018-01-07T17:11:33.760Z,5.20
2018-01-07T17:14:12.213Z,5.20
2018-01-07T17:16:53.240Z,5.20
2018-01-07T17:19:31.892Z,5.20
2018-01-07T17:22:13.260Z,5.20
2018-01-07T17:25:02.304Z,5.20
2018-01-07T17:30:31.148Z,5.20
2018-01-07T17:32:59.248Z,5.10
2018-01-07T17:35:34.360Z,5.20
2018-01-07T17:38:09.759Z,5.10
2018-01-07T17:40:37.883Z,5.10
2018-01-07T17:43:16.284Z,5.10
2018-01-07T17:45:49.528Z,5.10
2018-01-07T17:48:23.723Z,5.10
2018-01-07T17:51:00.132Z,5.10
2018-01-07T17:53:40.864Z,5.00
2018-01-07T17:56:09.028Z,5.00
2018-01-07T17:58:37.305Z,5.00
2018-01-07T18:01:07.536Z,5.00
2018-01-07T18:03:37.671Z,5.10
2018-01-07T18:06:08.143Z,5.10
2018-01-07T18:08:47.304Z,5.00
2018-01-07T18:11:20.452Z,5.00
2018-01-07T18:13:57.335Z,5.00
2018-01-07T18:19:40.544Z,5.00
2018-01-07T18:22:09.883Z,5.00
2018-01-07T18:24:38.023Z,5.00
2018-01-07T18:27:14.399Z,5.00
2018-01-07T18:32:45.711Z,4.90
2018-01-07T18:35:33.758Z,4.90
2018-01-07T18:38:17.179Z,4.90
2018-01-07T18:40:49.771Z,4.90
2018-01-07T18:43:19.175Z,4.90
2018-01-07T18:46:07.211Z,4.90
2018-01-07T18:48:35.323Z,4.90
2018-01-07T18:51:04.723Z,4.90
2018-01-07T18:53:48.963Z,4.90
2018-01-07T18:56:26.459Z,4.80
2018-01-07T18:59:08.031Z,4.80
2018-01-07T19:01:36.127Z,4.80
2018-01-07T19:04:04.699Z,4.80
2018-01-07T19:06:34.483Z,4.80
2018-01-07T19:11:51.135Z,4.80
2018-01-07T19:14:20.947Z,4.80
2018-01-07T19:16:52.555Z,4.80
2018-01-07T19:19:23.296Z,4.80
2018-01-07T19:24:26.735Z,4.80
2018-01-07T19:29:29.683Z,4.80
2018-01-07T19:31:59.079Z,4.80
2018-01-07T19:34:36.323Z,4.80
2018-01-07T19:39:46.979Z,4.70
2018-01-07T19:42:15.099Z,4.70
2018-01-07T19:44:56.283Z,4.70
2018-01-07T19:50:07.715Z,4.70
2018-01-07T19:52:37.819Z,4.70
2018-01-07T19:55:11.511Z,4.70
2018-01-07T19:57:39.655Z,4.70
2018-01-07T20:00:08.843Z,4.70
2018-01-07T20:02:38.887Z,4.70
2018-01-07T20:05:11.895Z,4.70
2018-01-07T20:07:41.151Z,4.70
2018-01-07T20:10:10.399Z,4.70
2018-01-07T20:12:43.335Z,4.70
2018-01-07T20:15:17.683Z,4.70
2018-01-07T20:17:57.350Z,4.70
2018-01-07T20:20:26.339Z,4.70
2018-01-07T20:22:57.147Z,4.70
2018-01-07T20:25:27.351Z,4.70
2018-01-07T20:27:56.315Z,4.70
2018-01-07T20:30:28.539Z,4.70
2018-01-07T20:32:57.039Z,4.80
2018-01-07T20:35:26.287Z,4.70
2018-01-07T20:37:55.611Z,4.70
2018-01-07T20:40:27.962Z,4.80
2018-01-07T20:42:56.089Z,4.70
2018-01-07T20:45:25.075Z,4.70
2018-01-07T20:47:54.278Z,4.70
2018-01-07T20:50:26.027Z,4.70
2018-01-07T20:52:55.095Z,4.70
2018-01-07T20:55:28.954Z,4.70
2018-01-07T20:58:01.159Z,4.80
2018-01-07T21:00:29.607Z,4.70
2018-01-07T21:02:59.310Z,4.80
2018-01-07T21:05:31.694Z,4.70
2018-01-07T21:08:02.523Z,4.70
2018-01-07T21:10:33.986Z,4.70
2018-01-07T21:16:07.910Z,4.70
2018-01-07T21:18:37.675Z,4.70
2018-01-07T21:21:18.094Z,4.70
2018-01-07T21:23:47.222Z,4.70
2018-01-07T21:26:15.239Z,4.70
2018-01-07T21:28:44.170Z,4.80
2018-01-07T21:31:16.774Z,4.80
2018-01-07T21:33:46.754Z,4.70
2018-01-07T21:36:14.798Z,4.70
2018-01-07T21:38:57.060Z,4.70
2018-01-07T21:41:43.036Z,4.80
2018-01-07T21:44:13.274Z,4.70
2018-01-07T21:46:45.246Z,4.70
2018-01-07T21:49:19.731Z,4.70
2018-01-07T21:54:30.746Z,4.70
2018-01-07T21:57:01.886Z,4.70
2018-01-07T22:03:05.584Z,4.70
2018-01-07T22:05:34.754Z,4.80
2018-01-07T22:08:04.710Z,4.80
2018-01-07T22:10:33.732Z,4.80
2018-01-07T22:16:12.682Z,4.80
2018-01-07T22:18:42.830Z,4.80
2018-01-07T22:21:24.934Z,4.70
2018-01-07T22:23:53.982Z,4.70
2018-01-07T22:26:25.562Z,4.80
2018-01-07T22:28:56.255Z,4.70
2018-01-07T22:41:53.950Z,4.70
2018-01-07T22:47:02.558Z,4.70
2018-01-07T22:49:34.942Z,4.70
2018-01-07T22:52:14.126Z,4.70
2018-01-07T22:54:53.934Z,4.70
2018-01-07T22:59:57.542Z,4.70
2018-01-07T23:02:26.722Z,4.70
2018-01-07T23:05:02.020Z,4.70
2018-01-07T23:10:24.022Z,4.70
2018-01-07T23:22:03.650Z,4.70
2018-01-07T23:24:40.493Z,4.70
2018-01-07T23:27:16.366Z,4.70
2018-01-07T23:29:48.853Z,4.70
2018-01-07T23:32:20.170Z,4.70
2018-01-07T23:34:51.950Z,4.70
2018-01-07T23:47:42.322Z,4.70
